Old Orchard Beach, Maine
Current Conditions -  °F | °C
As of 4:51 AM on Sunday 25 Jan 2015 (Local Time) from KPWM Reporting Station
Overcast Overcast  
Wind Chill: -4°   Ceiling: 8500
Heat Index:   Visibility: 10mi
Dew Point: -4°   Wind: 13mph
Humidity: 70%   Direction: 270°W
Pressure: 29.32"   Gusts: NA
Location:  43.52°N, 70.38°W
Report Text: KPWM 250951Z 27011KT 10SM OVC085 01/M04 A2932 RMK AO2 SLP929 T00111039 $
Loading
Personal Weather Stations






























Interactive Weather Map New forecast layout! Learn more

10-Day Weather Forecast

Advertisements
Track Severe Weather on mobile